createdAt,value
2023-04-15T00:01:59.396Z,2.60
2023-04-15T00:04:27.166Z,2.30
2023-04-15T00:06:54.738Z,2.20
2023-04-15T00:09:29.740Z,2.30
2023-04-15T00:12:03.725Z,2.50
2023-04-15T00:14:35.929Z,2.50
2023-04-15T00:17:07.142Z,2.90
2023-04-15T00:19:34.932Z,3.80
2023-04-15T00:22:08.030Z,4.20
2023-04-15T00:24:43.066Z,2.80
2023-04-15T00:27:15.595Z,2.30
2023-04-15T00:29:43.860Z,2.40
2023-04-15T00:32:15.691Z,1.90
2023-04-15T00:34:43.240Z,2.50
2023-04-15T00:37:14.413Z,2.80
2023-04-15T00:39:42.775Z,2.40
2023-04-15T00:42:14.145Z,2.40
2023-04-15T00:44:45.704Z,3.00
2023-04-15T01:00:45.751Z,4.20
2023-04-15T01:03:28.540Z,5.10
2023-04-15T01:06:00.919Z,4.60
2023-04-15T01:08:31.311Z,4.30
2023-04-15T01:31:52.459Z,4.40
2023-04-15T01:36:48.064Z,5.70
2023-04-15T01:39:15.453Z,6.10
2023-04-15T01:41:43.580Z,5.70
2023-04-15T01:44:10.495Z,5.30
2023-04-15T01:46:40.211Z,4.60
2023-04-15T01:49:08.073Z,3.80
2023-04-15T01:51:35.037Z,4.90
2023-04-15T01:54:04.758Z,6.10
2023-04-15T01:56:32.888Z,5.90
2023-04-15T01:59:01.623Z,6.60
2023-04-15T02:01:29.283Z,6.00
2023-04-15T02:04:01.433Z,6.40
2023-04-15T02:06:31.180Z,3.80
2023-04-15T02:08:58.765Z,4.30
2023-04-15T02:11:27.177Z,3.70
2023-04-15T02:13:54.233Z,4.50
2023-04-15T02:16:21.382Z,4.00
2023-04-15T02:18:54.316Z,4.60
2023-04-15T02:21:22.132Z,4.40
2023-04-15T02:23:49.156Z,4.70
2023-04-15T02:26:16.438Z,4.60
2023-04-15T02:28:43.590Z,4.40
2023-04-15T02:31:10.421Z,3.00
2023-04-15T02:33:37.734Z,4.10
2023-04-15T02:36:06.374Z,3.60
2023-04-15T02:38:34.106Z,3.00
2023-04-15T02:41:02.237Z,3.30
2023-04-15T02:43:30.047Z,2.80
2023-04-15T02:45:57.908Z,2.90
2023-04-15T02:48:28.123Z,3.20
2023-04-15T02:51:11.196Z,3.30
2023-04-15T02:53:38.186Z,3.90
2023-04-15T02:56:07.910Z,3.50
2023-04-15T02:58:35.906Z,3.20
2023-04-15T03:01:03.029Z,4.20
2023-04-15T03:03:30.997Z,3.20
2023-04-15T03:05:58.295Z,3.70
2023-04-15T03:08:27.081Z,3.40
2023-04-15T03:11:00.445Z,4.00
2023-04-15T03:13:27.531Z,4.30
2023-04-15T03:15:56.576Z,4.10
2023-04-15T03:18:23.613Z,4.20
2023-04-15T03:20:50.591Z,3.80
2023-04-15T03:23:18.006Z,3.60
2023-04-15T03:25:45.456Z,4.00
2023-04-15T03:28:12.375Z,3.20
2023-04-15T03:30:39.951Z,4.30
2023-04-15T03:33:08.061Z,4.10
2023-04-15T03:35:35.716Z,3.70
2023-04-15T03:38:06.665Z,4.00
2023-04-15T03:40:34.142Z,3.80
2023-04-15T03:43:01.442Z,3.80
2023-04-15T03:45:28.400Z,2.80
2023-04-15T03:47:56.547Z,2.90
2023-04-15T03:50:28.569Z,2.90
2023-04-15T03:52:55.908Z,3.10
2023-04-15T03:55:22.690Z,3.40
2023-04-15T03:57:49.585Z,4.50
2023-04-15T04:00:16.847Z,4.70
2023-04-15T04:02:46.413Z,4.30
2023-04-15T04:05:13.610Z,6.60
2023-04-15T04:07:42.091Z,5.80
2023-04-15T04:10:09.507Z,6.60
2023-04-15T04:12:36.407Z,6.00
2023-04-15T04:15:07.510Z,4.80
2023-04-15T04:17:35.337Z,4.00
2023-04-15T04:20:02.227Z,3.80
2023-04-15T04:22:46.116Z,4.30
2023-04-15T04:25:12.953Z,4.00
2023-04-15T04:27:40.296Z,4.00
2023-04-15T04:30:08.531Z,3.70
2023-04-15T04:32:37.724Z,4.40
2023-04-15T04:35:07.896Z,3.90
2023-04-15T04:37:38.589Z,3.90
2023-04-15T04:40:06.228Z,4.20
2023-04-15T04:42:33.503Z,4.90
2023-04-15T04:45:02.566Z,4.30
2023-04-15T04:47:30.265Z,5.00
2023-04-15T04:49:58.100Z,5.10
2023-04-15T04:52:25.703Z,5.70
2023-04-15T04:54:52.893Z,5.60
2023-04-15T04:57:20.277Z,5.30
2023-04-15T04:59:47.190Z,5.00
2023-04-15T05:02:14.100Z,4.60
2023-04-15T05:04:41.425Z,5.20
2023-04-15T05:07:10.963Z,4.80
2023-04-15T05:09:38.257Z,6.20
2023-04-15T05:12:07.787Z,7.60
2023-04-15T05:14:39.364Z,6.70
2023-04-15T05:17:11.045Z,6.90
2023-04-15T05:19:39.286Z,7.20
2023-04-15T05:22:08.560Z,6.50
2023-04-15T05:24:35.566Z,4.80
2023-04-15T05:27:04.703Z,5.70
2023-04-15T05:29:32.194Z,5.30
2023-04-15T05:32:00.042Z,5.70
2023-04-15T05:34:27.162Z,5.40
2023-04-15T05:36:54.153Z,5.20
2023-04-15T05:39:21.547Z,5.30
2023-04-15T05:41:48.457Z,4.60
2023-04-15T05:44:16.985Z,6.20
2023-04-15T05:46:45.266Z,4.50
2023-04-15T05:49:12.649Z,5.60
2023-04-15T05:51:39.564Z,5.10
2023-04-15T05:54:11.232Z,6.40
2023-04-15T05:56:39.937Z,7.20
2023-04-15T05:59:08.190Z,7.60
2023-04-15T06:01:37.005Z,6.80
2023-04-15T06:04:05.318Z,5.30
2023-04-15T06:06:33.085Z,5.60
2023-04-15T06:09:00.468Z,5.80
2023-04-15T06:11:33.373Z,6.30
2023-04-15T06:14:01.494Z,3.90
2023-04-15T06:16:29.016Z,4.40
2023-04-15T06:18:56.084Z,4.00
2023-04-15T06:21:23.125Z,4.20
2023-04-15T06:23:50.496Z,3.70
2023-04-15T06:26:18.659Z,3.80
2023-04-15T06:28:45.884Z,4.60
2023-04-15T06:31:12.930Z,4.10
2023-04-15T06:33:40.527Z,5.50
2023-04-15T06:36:07.882Z,3.30
2023-04-15T06:38:37.809Z,3.00
2023-04-15T06:41:05.887Z,4.80
2023-04-15T06:43:32.801Z,4.40
2023-04-15T06:46:00.024Z,3.70
2023-04-15T06:48:29.245Z,4.50
2023-04-15T06:50:57.705Z,4.30
2023-04-15T06:53:30.461Z,4.60
2023-04-15T06:55:57.561Z,4.30
2023-04-15T06:58:24.863Z,5.20
2023-04-15T07:01:00.280Z,5.60
2023-04-15T07:03:32.614Z,7.20
2023-04-15T07:06:01.276Z,8.20
2023-04-15T07:08:34.028Z,5.60
2023-04-15T07:11:02.198Z,3.90
2023-04-15T07:13:30.930Z,4.00
2023-04-15T07:15:58.350Z,4.20
2023-04-15T07:18:27.190Z,4.30
2023-04-15T07:20:55.660Z,4.80
2023-04-15T07:23:24.797Z,4.60
2023-04-15T07:25:54.350Z,4.90
2023-04-15T07:28:21.450Z,5.20
2023-04-15T07:30:48.879Z,3.90
2023-04-15T07:33:20.160Z,3.30
2023-04-15T07:35:48.834Z,3.40
2023-04-15T07:38:16.266Z,2.20
2023-04-15T07:40:46.409Z,2.60
2023-04-15T07:43:15.262Z,2.40
2023-04-15T07:45:44.486Z,4.60
2023-04-15T07:48:17.821Z,4.40
2023-04-15T07:50:53.458Z,8.00
2023-04-15T07:53:23.607Z,7.80
2023-04-15T07:55:56.051Z,5.20
2023-04-15T07:58:25.150Z,4.60
2023-04-15T08:00:55.092Z,3.90
2023-04-15T08:03:23.332Z,3.00
2023-04-15T08:05:53.063Z,2.50
2023-04-15T08:08:28.272Z,3.30
2023-04-15T08:10:56.168Z,3.30
2023-04-15T08:13:23.635Z,5.10
2023-04-15T08:16:24.952Z,4.80
2023-04-15T08:18:55.296Z,4.20
2023-04-15T08:21:24.536Z,5.60
2023-04-15T08:23:52.631Z,5.00
2023-04-15T08:26:23.448Z,5.20
2023-04-15T08:28:55.060Z,5.40
2023-04-15T08:31:22.142Z,4.30
2023-04-15T08:33:52.883Z,4.50
2023-04-15T08:36:20.602Z,4.10
2023-04-15T08:38:50.636Z,5.30
2023-04-15T08:41:22.893Z,5.90
2023-04-15T08:43:58.925Z,5.20
2023-04-15T08:46:29.025Z,5.20
2023-04-15T08:48:57.662Z,3.70
2023-04-15T08:51:29.510Z,3.50
2023-04-15T08:53:56.892Z,4.30
2023-04-15T08:56:26.239Z,3.50
2023-04-15T08:58:53.027Z,4.50
2023-04-15T09:01:21.169Z,3.50
2023-04-15T09:03:48.813Z,3.20
2023-04-15T09:06:17.980Z,3.00
2023-04-15T09:08:45.200Z,2.40
2023-04-15T09:11:13.611Z,2.60
2023-04-15T09:13:41.535Z,3.50
2023-04-15T09:16:08.880Z,3.60
2023-04-15T09:18:37.808Z,4.50
2023-04-15T09:21:11.582Z,4.30
2023-04-15T09:23:39.931Z,4.80
2023-04-15T09:26:07.233Z,4.80
2023-04-15T09:28:36.750Z,4.50
2023-04-15T09:31:03.718Z,6.00
2023-04-15T09:33:31.111Z,5.70
2023-04-15T09:36:00.394Z,6.10
2023-04-15T09:38:27.709Z,7.20
2023-04-15T09:40:55.478Z,5.00
2023-04-15T09:43:42.241Z,5.40
2023-04-15T09:46:09.249Z,5.50
2023-04-15T09:48:36.990Z,5.50
2023-04-15T09:51:03.881Z,4.20
2023-04-15T09:53:36.231Z,4.80
2023-04-15T09:56:03.684Z,5.20
2023-04-15T09:58:33.002Z,5.00
2023-04-15T10:01:03.145Z,4.80
2023-04-15T10:03:33.738Z,3.50
2023-04-15T10:06:02.062Z,4.90
2023-04-15T10:08:32.466Z,4.10
2023-04-15T10:11:01.357Z,5.90
2023-04-15T10:13:35.915Z,5.40
2023-04-15T10:16:08.836Z,4.00
2023-04-15T10:18:38.618Z,3.80
2023-04-15T10:21:05.583Z,3.60
2023-04-15T10:23:32.466Z,3.20
2023-04-15T10:25:59.412Z,3.10
2023-04-15T10:28:27.164Z,2.90
2023-04-15T10:30:54.461Z,3.40
2023-04-15T10:33:23.076Z,3.20
2023-04-15T10:35:51.412Z,3.40
2023-04-15T10:38:35.475Z,3.60
2023-04-15T10:41:21.636Z,5.80
2023-04-15T10:43:55.812Z,4.20
2023-04-15T10:49:25.761Z,6.90
2023-04-15T10:51:57.137Z,8.60
2023-04-15T10:54:23.968Z,8.90
2023-04-15T10:57:14.416Z,11.40
2023-04-15T11:00:04.256Z,7.10
2023-04-15T11:02:46.966Z,6.50
2023-04-15T11:05:17.411Z,5.70
2023-04-15T11:07:46.291Z,5.80
2023-04-15T11:10:13.323Z,9.40
2023-04-15T11:12:40.655Z,8.20
2023-04-15T11:15:30.549Z,8.40
2023-04-15T11:17:58.087Z,10.00
2023-04-15T11:20:25.849Z,6.00
2023-04-15T11:23:08.323Z,6.00
2023-04-15T11:25:41.202Z,7.50
2023-04-15T11:28:08.244Z,8.20
2023-04-15T11:30:36.941Z,8.10
2023-04-15T11:33:05.565Z,6.70
2023-04-15T11:35:32.930Z,8.90
2023-04-15T11:38:10.098Z,8.10
2023-04-15T11:40:37.843Z,6.20
2023-04-15T11:43:20.322Z,4.80
2023-04-15T11:45:49.209Z,5.40
2023-04-15T11:48:16.550Z,7.00
2023-04-15T11:50:43.532Z,6.20
2023-04-15T11:53:11.634Z,5.30
2023-04-15T11:55:43.674Z,5.00
2023-04-15T11:58:16.636Z,6.60
2023-04-15T12:00:52.518Z,6.00
2023-04-15T12:03:26.156Z,5.60
2023-04-15T12:06:17.420Z,4.70
2023-04-15T12:08:58.672Z,6.10
2023-04-15T12:11:26.608Z,6.00
2023-04-15T12:13:56.446Z,6.30
2023-04-15T12:16:24.214Z,6.00
2023-04-15T12:18:52.239Z,6.00
2023-04-15T12:21:20.515Z,7.40
2023-04-15T12:23:54.682Z,7.00
2023-04-15T12:26:29.156Z,9.70
2023-04-15T12:29:09.627Z,12.70
2023-04-15T12:31:37.314Z,14.10
2023-04-15T12:34:07.488Z,8.90
2023-04-15T12:36:37.574Z,6.70
2023-04-15T12:39:05.010Z,10.00
2023-04-15T12:41:32.664Z,7.20
2023-04-15T12:43:59.853Z,6.20
2023-04-15T12:46:27.931Z,5.70
2023-04-15T12:48:54.957Z,6.40
2023-04-15T12:51:21.989Z,5.60
2023-04-15T12:53:49.215Z,6.50
2023-04-15T12:56:19.621Z,6.60
2023-04-15T12:58:46.942Z,6.10
2023-04-15T13:01:14.137Z,6.30
2023-04-15T13:03:41.459Z,6.60
2023-04-15T13:06:08.946Z,6.10
2023-04-15T13:08:38.565Z,9.20
2023-04-15T13:11:07.521Z,7.10
2023-04-15T13:13:34.350Z,6.00
2023-04-15T13:16:01.927Z,5.20
2023-04-15T13:18:30.881Z,6.20
2023-04-15T13:21:00.001Z,7.10
2023-04-15T13:23:27.273Z,6.60
2023-04-15T13:25:54.236Z,6.90
2023-04-15T13:28:22.699Z,6.60
2023-04-15T13:30:50.001Z,6.30
2023-04-15T13:33:18.133Z,8.10
2023-04-15T13:38:20.208Z,10.00
2023-04-15T13:40:50.498Z,10.20
2023-04-15T13:43:18.399Z,9.70
2023-04-15T13:45:46.156Z,8.00
2023-04-15T13:48:13.525Z,9.60
2023-04-15T13:50:44.716Z,11.40
2023-04-15T13:53:12.584Z,12.40
2023-04-15T13:55:41.290Z,13.80
2023-04-15T13:58:08.886Z,18.00
2023-04-15T14:00:38.026Z,16.60
2023-04-15T14:03:05.275Z,13.30
2023-04-15T14:05:33.673Z,13.70
2023-04-15T14:08:01.102Z,11.40
2023-04-15T14:10:28.113Z,12.10
2023-04-15T14:12:54.994Z,13.60
2023-04-15T14:15:22.046Z,14.30
2023-04-15T14:17:49.075Z,17.90
2023-04-15T14:20:17.158Z,16.90
2023-04-15T14:22:44.454Z,15.80
2023-04-15T14:25:17.301Z,13.90
2023-04-15T14:27:50.504Z,12.20
2023-04-15T14:30:17.488Z,16.60
2023-04-15T14:32:45.360Z,16.80
2023-04-15T14:35:12.315Z,13.30
2023-04-15T14:37:39.749Z,13.70
2023-04-15T14:40:07.551Z,13.50
2023-04-15T14:42:35.650Z,13.30
2023-04-15T14:45:03.127Z,13.80
2023-04-15T14:47:33.372Z,13.60
2023-04-15T14:50:01.798Z,13.40
2023-04-15T14:52:32.552Z,12.60
2023-04-15T14:55:01.291Z,11.50
2023-04-15T14:57:30.587Z,12.00
2023-04-15T14:59:58.672Z,17.60
2023-04-15T15:02:37.288Z,13.00
2023-04-15T15:05:06.473Z,15.60
2023-04-15T15:07:33.741Z,25.30
2023-04-15T15:10:10.249Z,16.40
2023-04-15T15:12:40.313Z,15.80
2023-04-15T15:15:19.576Z,17.10
2023-04-15T15:18:25.612Z,15.40
2023-04-15T15:21:05.070Z,13.80
2023-04-15T15:23:33.335Z,12.80
2023-04-15T15:26:04.988Z,15.00
2023-04-15T15:28:33.999Z,18.00
2023-04-15T15:31:00.979Z,15.40
2023-04-15T15:33:30.139Z,15.50
2023-04-15T15:35:57.750Z,14.20
2023-04-15T15:38:24.903Z,15.10
2023-04-15T15:40:52.929Z,15.90
2023-04-15T15:43:23.009Z,16.60
2023-04-15T15:45:52.506Z,17.10
2023-04-15T15:48:19.918Z,17.90
2023-04-15T15:50:46.858Z,13.30
2023-04-15T15:53:20.169Z,11.00
2023-04-15T15:55:51.945Z,12.60
2023-04-15T15:58:20.859Z,13.20
2023-04-15T16:00:48.203Z,13.70
2023-04-15T16:03:15.423Z,14.80
2023-04-15T16:05:43.413Z,14.40
2023-04-15T16:08:10.560Z,14.20
2023-04-15T16:10:37.784Z,14.10
2023-04-15T16:13:05.337Z,16.00
2023-04-15T16:15:32.721Z,13.90
2023-04-15T16:18:03.809Z,13.20
2023-04-15T16:20:31.456Z,11.80
2023-04-15T16:22:58.405Z,13.00
2023-04-15T16:25:28.070Z,14.50
2023-04-15T16:28:05.509Z,12.10
2023-04-15T16:30:41.008Z,12.90
2023-04-15T16:33:09.429Z,14.10
2023-04-15T16:35:36.442Z,13.60
2023-04-15T16:38:04.014Z,14.40
2023-04-15T16:40:31.078Z,13.20
2023-04-15T16:42:58.228Z,10.60
2023-04-15T16:45:26.469Z,10.10
2023-04-15T16:47:53.869Z,10.90
2023-04-15T16:50:21.380Z,13.80
2023-04-15T16:52:48.525Z,14.00
2023-04-15T16:55:15.635Z,13.10
2023-04-15T16:58:01.595Z,14.40
2023-04-15T17:00:32.337Z,13.00
2023-04-15T17:03:06.377Z,11.10
2023-04-15T17:05:33.865Z,9.60
2023-04-15T17:08:02.545Z,10.10
2023-04-15T17:10:31.188Z,10.90
2023-04-15T17:12:58.814Z,12.00
2023-04-15T17:15:26.020Z,13.10
2023-04-15T17:17:53.228Z,12.70
2023-04-15T17:20:20.300Z,14.10
2023-04-15T17:22:47.920Z,13.70
2023-04-15T17:25:15.750Z,13.50
2023-04-15T17:27:43.251Z,13.00
2023-04-15T17:30:10.396Z,11.50
2023-04-15T17:32:38.967Z,11.90
2023-04-15T17:35:09.778Z,11.20
2023-04-15T17:37:39.391Z,11.80
2023-04-15T17:40:08.610Z,13.30
2023-04-15T17:42:40.845Z,12.10
2023-04-15T17:45:08.735Z,12.70
2023-04-15T17:47:35.886Z,11.70
2023-04-15T17:50:03.089Z,11.10
2023-04-15T17:52:30.377Z,12.10
2023-04-15T17:54:57.551Z,12.30
2023-04-15T17:57:25.146Z,11.70
2023-04-15T17:59:52.282Z,9.90
2023-04-15T18:02:19.468Z,9.00
2023-04-15T18:04:47.121Z,9.50
2023-04-15T18:07:16.207Z,9.70
2023-04-15T18:09:44.996Z,11.80
2023-04-15T18:12:12.254Z,9.70
2023-04-15T18:14:40.507Z,8.40
2023-04-15T18:17:07.658Z,8.80
2023-04-15T18:19:35.366Z,9.10
2023-04-15T18:22:03.759Z,9.40
2023-04-15T18:24:31.470Z,9.10
2023-04-15T18:26:59.132Z,7.90
2023-04-15T18:29:26.526Z,10.50
2023-04-15T18:31:54.162Z,10.40
2023-04-15T18:34:21.960Z,10.90
2023-04-15T18:36:52.820Z,11.60
2023-04-15T18:39:20.374Z,10.90
2023-04-15T18:41:47.557Z,9.50
2023-04-15T18:44:14.549Z,11.60
2023-04-15T18:46:42.196Z,8.20
2023-04-15T18:49:10.934Z,9.50
2023-04-15T18:51:39.407Z,10.60
2023-04-15T18:54:06.675Z,11.40
2023-04-15T18:56:35.868Z,11.90
2023-04-15T18:59:25.415Z,12.00
2023-04-15T19:01:51.128Z,11.40
2023-04-15T19:04:18.110Z,10.60
2023-04-15T19:06:46.760Z,9.70
2023-04-15T19:09:14.583Z,9.80
2023-04-15T19:11:41.517Z,8.50
2023-04-15T19:14:09.536Z,8.30
2023-04-15T19:16:36.726Z,9.00
2023-04-15T19:19:03.698Z,10.10
2023-04-15T19:21:35.478Z,8.90
2023-04-15T19:24:02.365Z,9.90
2023-04-15T19:26:30.973Z,10.20
2023-04-15T19:28:58.431Z,9.40
2023-04-15T19:31:25.962Z,7.50
2023-04-15T19:33:52.959Z,6.20
2023-04-15T19:36:19.735Z,6.70
2023-04-15T19:38:46.637Z,7.60
2023-04-15T19:41:15.088Z,8.00
2023-04-15T19:43:42.143Z,7.00
2023-04-15T19:46:09.514Z,7.80
2023-04-15T19:48:37.442Z,7.10
2023-04-15T19:51:04.640Z,5.80
2023-04-15T19:53:31.954Z,6.50
2023-04-15T19:56:00.481Z,6.00
2023-04-15T19:58:32.014Z,7.80
2023-04-15T20:01:00.763Z,7.60
2023-04-15T20:03:27.662Z,7.70
2023-04-15T20:05:54.792Z,8.30
2023-04-15T20:08:22.978Z,9.80
2023-04-15T20:10:49.853Z,8.00
2023-04-15T20:13:17.598Z,7.20
2023-04-15T20:15:44.594Z,6.50
2023-04-15T20:18:11.553Z,7.60
2023-04-15T20:20:38.845Z,6.80
2023-04-15T20:23:05.904Z,6.60
2023-04-15T20:25:32.897Z,7.40
2023-04-15T20:28:01.093Z,7.40
2023-04-15T20:30:29.377Z,8.10
2023-04-15T20:32:58.062Z,6.90
2023-04-15T20:35:28.754Z,6.20
2023-04-15T20:37:56.437Z,5.90
2023-04-15T20:40:23.410Z,6.70
2023-04-15T20:42:50.510Z,5.50
2023-04-15T20:45:17.416Z,5.70
2023-04-15T20:47:44.266Z,5.90
2023-04-15T20:50:16.461Z,7.50
2023-04-15T20:52:44.112Z,7.30
2023-04-15T20:55:11.449Z,5.90
2023-04-15T20:57:39.860Z,5.50
2023-04-15T21:00:10.299Z,6.00
2023-04-15T21:02:38.032Z,4.40
2023-04-15T21:05:05.446Z,4.80
2023-04-15T21:07:32.414Z,4.50
2023-04-15T21:09:59.415Z,5.20
2023-04-15T21:12:26.305Z,5.30
2023-04-15T21:14:53.208Z,5.60
2023-04-15T21:17:20.133Z,5.90
2023-04-15T21:19:47.135Z,4.30
2023-04-15T21:22:14.911Z,4.60
2023-04-15T21:24:43.396Z,4.50
2023-04-15T21:27:12.887Z,3.80
2023-04-15T21:29:41.540Z,5.30
2023-04-15T21:32:08.417Z,4.20
2023-04-15T21:34:35.720Z,4.70
2023-04-15T21:37:04.060Z,3.90
2023-04-15T21:39:31.062Z,4.40
2023-04-15T21:41:58.900Z,4.50
2023-04-15T21:44:26.335Z,4.40
2023-04-15T21:46:53.416Z,4.10
2023-04-15T21:49:20.248Z,3.70
2023-04-15T21:51:47.986Z,4.00
2023-04-15T21:54:14.997Z,4.40
2023-04-15T21:56:42.595Z,4.10
2023-04-15T21:59:10.083Z,5.30
2023-04-15T22:01:38.083Z,4.80
2023-04-15T22:04:07.021Z,3.90
2023-04-15T22:06:35.008Z,4.00
2023-04-15T22:09:01.854Z,4.30
2023-04-15T22:11:31.771Z,3.90
2023-04-15T22:13:58.790Z,4.20
2023-04-15T22:16:25.997Z,4.80
2023-04-15T22:18:54.454Z,4.30
2023-04-15T22:21:23.000Z,5.00
2023-04-15T22:23:50.518Z,4.80
2023-04-15T22:26:17.397Z,4.40
2023-04-15T22:28:44.760Z,4.50
2023-04-15T22:31:13.139Z,3.60
2023-04-15T22:33:40.147Z,4.20
2023-04-15T22:36:07.347Z,4.70
2023-04-15T22:38:34.308Z,6.60
2023-04-15T22:41:01.306Z,5.30
2023-04-15T22:43:28.347Z,5.60
2023-04-15T22:45:56.022Z,5.20
2023-04-15T22:48:25.750Z,5.10
2023-04-15T22:50:52.822Z,4.50
2023-04-15T22:53:20.033Z,5.20
2023-04-15T22:55:47.416Z,4.30
2023-04-15T22:58:15.301Z,5.20
2023-04-15T23:00:42.194Z,5.30
2023-04-15T23:03:09.498Z,5.20
2023-04-15T23:05:39.449Z,4.70
2023-04-15T23:08:09.574Z,6.00
2023-04-15T23:10:40.351Z,4.70
2023-04-15T23:13:07.408Z,4.10
2023-04-15T23:15:34.479Z,4.10
2023-04-15T23:18:02.206Z,4.90
2023-04-15T23:20:29.316Z,5.10
2023-04-15T23:22:57.128Z,4.80
2023-04-15T23:25:24.058Z,4.80
2023-04-15T23:27:51.019Z,5.40
2023-04-15T23:30:17.862Z,4.60
2023-04-15T23:32:45.074Z,5.10
2023-04-15T23:35:12.641Z,5.00
2023-04-15T23:37:39.464Z,4.60
2023-04-15T23:40:07.099Z,4.80
2023-04-15T23:42:34.121Z,4.70
2023-04-15T23:45:01.061Z,5.20
2023-04-15T23:47:29.802Z,5.80
2023-04-15T23:49:56.749Z,6.40
2023-04-15T23:52:23.828Z,6.90
2023-04-15T23:54:52.070Z,7.10
2023-04-15T23:57:18.993Z,7.60
2023-04-15T23:59:45.882Z,7.30
